Time;durP1;ratioP1;P1;durP2;ratioP2;P2;SDS_P1;SDS_P2;PMS_P1;PMS_P2;Temp;Humidity;BMP_temperature;BMP_pressure;BME280_temperature;BME280_humidity;BME280_pressure;Samples;Min_cycle;Max_cycle;Signal;HPM_P1;HPM_P2
2022/03/17 00:00:08;;;;;;;36.38;17.08;;;9.70;81.50;;;;;;5050292;28;20043;-67
2022/03/17 00:02:35;;;;;;;34.58;17.88;;;9.70;81.20;;;;;;5063222;28;20102;-65
2022/03/17 00:05:02;;;;;;;31.95;18.58;;;9.70;81.40;;;;;;5036689;28;20067;-65
2022/03/17 00:07:28;;;;;;;36.10;18.38;;;9.70;81.50;;;;;;5065109;28;20040;-65
2022/03/17 00:09:54;;;;;;;32.88;18.17;;;9.70;81.60;;;;;;5053006;28;20493;-65
2022/03/17 00:12:21;;;;;;;33.55;17.80;;;9.60;81.70;;;;;;5055652;28;20126;-65
2022/03/17 00:14:46;;;;;;;39.90;19.02;;;9.60;81.70;;;;;;5059513;28;20044;-67
2022/03/17 00:17:12;;;;;;;37.47;17.88;;;9.60;82.20;;;;;;5052310;28;20568;-66
2022/03/17 00:19:38;;;;;;;35.78;17.70;;;9.60;82.20;;;;;;5053344;28;20036;-66
2022/03/17 00:22:08;;;;;;;38.05;19.23;;;9.60;82.40;;;;;;5048004;28;20602;-65
2022/03/17 00:24:38;;;;;;;34.00;17.83;;;9.60;82.50;;;;;;5059104;28;20511;-64
2022/03/17 00:27:08;;;;;;;36.03;19.58;;;9.60;82.60;;;;;;5049283;28;20445;-64
2022/03/17 00:29:35;;;;;;;36.47;18.38;;;9.60;82.60;;;;;;5061568;28;20151;-66
2022/03/17 00:32:02;;;;;;;35.22;19.33;;;9.60;82.90;;;;;;5059667;28;20671;-65
2022/03/17 00:34:28;;;;;;;33.40;18.02;;;9.60;82.70;;;;;;5052528;28;20069;-67
2022/03/17 00:36:53;;;;;;;32.58;17.38;;;9.50;82.90;;;;;;5048284;28;20095;-65
2022/03/17 00:39:19;;;;;;;34.67;18.95;;;9.60;82.90;;;;;;5060521;28;20085;-66
2022/03/17 00:41:45;;;;;;;37.08;19.60;;;9.50;83.10;;;;;;5054706;28;20082;-66
2022/03/17 00:44:11;;;;;;;36.38;18.80;;;9.50;83.30;;;;;;5059166;28;20040;-66
2022/03/17 00:46:37;;;;;;;33.78;18.23;;;9.50;83.40;;;;;;5035860;28;20033;-65
2022/03/17 00:49:03;;;;;;;35.80;18.77;;;9.50;83.50;;;;;;5060600;28;20041;-65
2022/03/17 00:51:29;;;;;;;34.72;17.50;;;9.50;83.80;;;;;;5050252;28;20037;-66
2022/03/17 00:53:55;;;;;;;31.55;17.23;;;9.50;83.60;;;;;;5059679;28;20373;-65
2022/03/17 00:56:20;;;;;;;34.53;18.45;;;9.50;83.80;;;;;;5056645;28;20048;-67
2022/03/17 00:58:48;;;;;;;35.15;18.15;;;9.50;83.80;;;;;;5050043;28;20040;-64
2022/03/17 01:01:15;;;;;;;35.85;18.10;;;9.50;83.90;;;;;;5033627;28;20075;-66
2022/03/17 01:03:42;;;;;;;35.42;18.67;;;9.50;84.00;;;;;;5043581;28;20362;-68
2022/03/17 01:06:07;;;;;;;36.50;18.98;;;9.60;83.80;;;;;;5064869;28;20048;-65
2022/03/17 01:08:33;;;;;;;34.55;18.27;;;9.50;83.80;;;;;;5066145;28;20101;-65
2022/03/17 01:10:59;;;;;;;34.58;18.88;;;9.60;83.80;;;;;;5046080;28;20098;-65
2022/03/17 01:13:24;;;;;;;33.30;18.42;;;9.60;83.80;;;;;;5042171;28;20105;-66
2022/03/17 01:15:50;;;;;;;33.55;16.85;;;9.50;83.90;;;;;;5055422;28;20052;-65
2022/03/17 01:18:15;;;;;;;32.95;18.33;;;9.50;83.90;;;;;;5037653;28;20095;-66
2022/03/17 01:20:41;;;;;;;37.13;19.20;;;9.50;84.20;;;;;;5057486;28;20072;-65
2022/03/17 01:23:07;;;;;;;35.33;18.00;;;9.50;84.20;;;;;;5048527;28;20040;-64
2022/03/17 01:25:33;;;;;;;34.15;18.77;;;9.50;84.20;;;;;;5060093;28;20048;-63
2022/03/17 01:27:59;;;;;;;38.72;18.13;;;9.50;84.30;;;;;;5048716;28;20043;-66
2022/03/17 01:30:25;;;;;;;33.70;17.75;;;9.50;84.60;;;;;;5052590;28;20147;-68
2022/03/17 01:32:50;;;;;;;37.80;18.50;;;9.50;84.60;;;;;;5043303;28;20071;-65
2022/03/17 01:35:16;;;;;;;37.50;19.17;;;9.50;84.50;;;;;;5051807;28;20398;-64
2022/03/17 01:37:41;;;;;;;34.95;18.92;;;9.50;84.30;;;;;;5050995;28;20029;-68
2022/03/17 01:40:09;;;;;;;35.15;17.48;;;9.50;84.50;;;;;;5058995;28;20053;-67
2022/03/17 01:42:35;;;;;;;40.08;20.10;;;9.50;84.50;;;;;;5059541;28;20044;-65
2022/03/17 01:45:01;;;;;;;37.30;18.17;;;9.50;84.60;;;;;;5057720;28;20040;-65
2022/03/17 01:47:27;;;;;;;37.03;18.83;;;9.50;84.90;;;;;;5053395;28;20029;-67
2022/03/17 01:49:57;;;;;;;35.33;18.65;;;9.50;84.90;;;;;;5053998;28;20044;-67
2022/03/17 01:52:24;;;;;;;35.75;18.10;;;9.50;85.20;;;;;;5053449;28;20043;-65
2022/03/17 01:54:50;;;;;;;35.38;18.73;;;9.40;85.00;;;;;;5051971;28;20040;-68
2022/03/17 01:57:16;;;;;;;33.80;18.95;;;9.40;85.00;;;;;;5047423;28;20488;-67
2022/03/17 01:59:42;;;;;;;34.58;19.33;;;9.50;85.00;;;;;;5050752;28;20076;-65
2022/03/17 02:02:10;;;;;;;39.15;19.90;;;9.40;85.30;;;;;;5054309;28;20047;-66
2022/03/17 02:04:36;;;;;;;38.38;19.63;;;9.40;85.40;;;;;;5064096;28;20067;-65
2022/03/17 02:07:05;;;;;;;37.58;19.02;;;9.40;85.40;;;;;;5051583;28;20052;-65
2022/03/17 02:09:31;;;;;;;37.90;19.63;;;9.40;85.70;;;;;;5063212;28;20049;-64
2022/03/17 02:14:50;;;;;;;41.92;19.50;;;9.40;86.10;;;;;;5057574;28;20048;-66
2022/03/17 02:17:16;;;;;;;35.85;19.65;;;9.40;86.50;;;;;;5061564;28;20048;-66
2022/03/17 02:19:42;;;;;;;36.72;17.95;;;9.40;86.30;;;;;;5047497;28;20041;-65
2022/03/17 02:22:14;;;;;;;39.83;19.35;;;9.40;86.50;;;;;;5049544;28;20048;-67
2022/03/17 02:27:28;;;;;;;40.65;19.60;;;9.30;87.50;;;;;;5047033;28;20430;-68
2022/03/17 02:29:54;;;;;;;39.63;20.35;;;9.30;88.10;;;;;;5059632;28;20032;-65
2022/03/17 02:32:20;;;;;;;37.08;18.90;;;9.30;88.50;;;;;;5056230;28;20039;-64
2022/03/17 02:34:46;;;;;;;37.35;18.65;;;9.30;88.50;;;;;;5036261;28;20352;-65
2022/03/17 02:37:12;;;;;;;38.92;19.15;;;9.20;88.90;;;;;;5045115;28;20053;-65
2022/03/17 02:39:39;;;;;;;37.30;18.88;;;9.20;89.00;;;;;;5050255;28;20385;-64
2022/03/17 02:42:05;;;;;;;36.13;19.00;;;9.20;89.60;;;;;;5045932;28;20423;-65
2022/03/17 02:44:32;;;;;;;37.28;19.40;;;9.20;88.90;;;;;;5062628;28;20048;-65
2022/03/17 02:46:58;;;;;;;40.90;19.50;;;9.20;88.90;;;;;;5032566;28;20240;-64
2022/03/17 02:49:23;;;;;;;36.17;18.50;;;9.20;88.90;;;;;;5065163;28;20156;-65
2022/03/17 02:51:49;;;;;;;38.65;19.98;;;9.30;89.20;;;;;;5053625;28;20119;-64
2022/03/17 02:54:14;;;;;;;39.53;19.23;;;9.30;88.80;;;;;;5060928;28;20437;-65
2022/03/17 02:56:40;;;;;;;35.03;17.92;;;9.40;88.80;;;;;;5058642;28;20457;-65
2022/03/17 02:59:06;;;;;;;38.30;18.75;;;9.30;88.80;;;;;;5058317;28;20032;-65
2022/03/17 03:01:32;;;;;;;37.28;18.92;;;9.40;88.90;;;;;;5050711;28;20110;-64
2022/03/17 03:03:58;;;;;;;38.40;19.05;;;9.40;88.60;;;;;;5031040;28;20033;-65
2022/03/17 03:06:23;;;;;;;35.60;18.95;;;9.40;88.60;;;;;;5052527;28;20037;-65
2022/03/17 03:08:49;;;;;;;37.40;19.60;;;9.40;88.80;;;;;;5045189;28;20049;-65
2022/03/17 03:11:15;;;;;;;36.15;18.98;;;9.40;88.80;;;;;;5064407;28;20123;-66
2022/03/17 03:13:40;;;;;;;36.03;18.35;;;9.40;88.50;;;;;;5056876;28;20055;-66
2022/03/17 03:16:06;;;;;;;36.03;19.40;;;9.50;88.60;;;;;;5048992;28;20041;-66
2022/03/17 03:18:31;;;;;;;34.45;18.98;;;9.50;88.20;;;;;;5049012;28;20107;-65
2022/03/17 03:20:57;;;;;;;33.65;18.08;;;9.60;87.60;;;;;;5060757;28;20129;-64
2022/03/17 03:23:23;;;;;;;35.53;19.25;;;9.70;87.20;;;;;;5053728;28;20435;-64
2022/03/17 03:25:48;;;;;;;35.97;21.15;;;9.70;86.90;;;;;;5060374;28;20572;-66
2022/03/17 03:28:14;;;;;;;34.30;19.88;;;9.80;86.60;;;;;;5042928;28;20083;-64
2022/03/17 03:30:39;;;;;;;34.65;19.70;;;10.00;85.30;;;;;;5058395;28;20057;-65
2022/03/17 03:33:09;;;;;;;38.63;19.42;;;9.90;85.90;;;;;;5051815;28;20047;-65
2022/03/17 03:38:20;;;;;;;39.08;19.83;;;9.90;85.30;;;;;;5063195;28;20048;-66
2022/03/17 03:40:46;;;;;;;40.72;21.10;;;9.90;85.70;;;;;;5056006;28;20044;-66
2022/03/17 03:43:12;;;;;;;38.67;19.42;;;9.90;85.90;;;;;;5055154;28;20489;-64
2022/03/17 03:45:38;;;;;;;35.10;19.98;;;9.90;85.70;;;;;;5052159;28;20053;-66
2022/03/17 03:48:03;;;;;;;33.85;18.40;;;10.00;86.00;;;;;;5055868;28;20467;-65
2022/03/17 03:50:30;;;;;;;31.17;19.38;;;10.00;86.00;;;;;;5064844;28;20068;-65
2022/03/17 03:52:57;;;;;;;35.63;19.08;;;10.10;85.00;;;;;;5032905;28;20039;-67
2022/03/17 03:55:22;;;;;;;38.80;20.25;;;10.00;85.20;;;;;;5063588;28;20032;-65
2022/03/17 03:57:48;;;;;;;32.38;18.90;;;10.00;85.10;;;;;;5062337;28;20542;-66
2022/03/17 04:00:32;;;;;;;33.38;19.25;;;10.00;85.80;;;;;;5066238;28;20045;-64
2022/03/17 04:02:58;;;;;;;36.08;19.30;;;10.00;84.90;;;;;;5062527;28;20036;-67
2022/03/17 04:05:44;;;;;;;36.88;20.08;;;10.00;85.30;;;;;;5070900;28;20437;-64
2022/03/17 04:08:10;;;;;;;37.03;20.00;;;10.00;85.30;;;;;;5050630;28;20045;-66
2022/03/17 04:10:35;;;;;;;37.22;20.75;;;10.00;85.40;;;;;;5060473;28;20036;-67
2022/03/17 04:13:01;;;;;;;36.90;19.85;;;10.10;85.20;;;;;;5061241;28;20048;-67
2022/03/17 04:15:27;;;;;;;35.35;19.95;;;10.10;85.30;;;;;;5061053;28;20416;-64
2022/03/17 04:17:53;;;;;;;36.78;19.08;;;10.10;85.30;;;;;;5036790;28;20405;-67
2022/03/17 04:20:19;;;;;;;38.55;19.75;;;10.10;85.50;;;;;;5050747;28;20049;-66
2022/03/17 04:22:44;;;;;;;38.38;20.15;;;10.10;85.50;;;;;;5035748;28;20575;-66
2022/03/17 04:25:10;;;;;;;36.38;20.33;;;10.10;85.40;;;;;;5062019;28;20066;-65
2022/03/17 04:27:35;;;;;;;35.13;20.30;;;10.10;85.20;;;;;;5050485;28;20128;-65
2022/03/17 04:30:01;;;;;;;39.28;21.90;;;10.20;85.20;;;;;;5065423;28;20040;-64
2022/03/17 04:32:27;;;;;;;37.55;20.35;;;10.20;85.10;;;;;;5067062;28;20101;-65
2022/03/17 04:34:52;;;;;;;37.28;21.02;;;10.20;84.80;;;;;;5052109;28;20065;-67
2022/03/17 04:37:18;;;;;;;37.38;20.92;;;10.30;85.00;;;;;;5064569;28;20076;-67
2022/03/17 04:39:43;;;;;;;36.97;20.85;;;10.20;85.40;;;;;;5065503;28;20116;-64
2022/03/17 04:42:09;;;;;;;36.08;20.60;;;10.20;86.00;;;;;;5065223;28;20040;-67
2022/03/17 04:44:35;;;;;;;38.88;21.48;;;10.10;87.50;;;;;;5050893;28;20029;-65
2022/03/17 04:47:01;;;;;;;40.88;21.65;;;10.00;89.60;;;;;;5068724;28;20052;-67
2022/03/17 04:49:27;;;;;;;37.25;21.88;;;10.00;90.20;;;;;;5050434;28;20579;-65
2022/03/17 04:51:52;;;;;;;40.70;22.70;;;9.90;90.40;;;;;;5061899;28;20057;-66
2022/03/17 04:54:18;;;;;;;45.95;24.30;;;9.80;91.10;;;;;;5059881;28;20041;-64
2022/03/17 04:56:43;;;;;;;49.50;26.92;;;9.40;96.40;;;;;;5067120;28;20044;-66
2022/03/17 04:59:09;;;;;;;51.33;28.05;;;9.10;99.90;;;;;;5053076;28;20048;-66
2022/03/17 05:01:34;;;;;;;53.47;27.60;;;9.00;99.90;;;;;;5056757;28;20037;-64
2022/03/17 05:04:00;;;;;;;55.15;28.50;;;8.90;99.90;;;;;;5061760;28;20079;-63
2022/03/17 05:06:26;;;;;;;60.88;30.17;;;8.80;99.90;;;;;;5065572;28;20128;-65
2022/03/17 05:08:51;;;;;;;63.20;30.45;;;8.70;99.90;;;;;;5055888;28;20364;-64
2022/03/17 05:11:18;;;;;;;63.65;31.98;;;8.60;99.90;;;;;;5068035;28;20043;-62
2022/03/17 05:13:44;;;;;;;69.22;32.47;;;8.60;99.90;;;;;;5056771;28;20037;-65
2022/03/17 05:16:10;;;;;;;70.93;34.28;;;8.70;99.90;;;;;;5058829;28;20471;-64
2022/03/17 05:18:36;;;;;;;73.75;34.50;;;8.60;99.90;;;;;;5053665;28;20060;-64
2022/03/17 05:21:02;;;;;;;81.05;37.97;;;8.60;99.90;;;;;;5058796;28;20044;-64
2022/03/17 05:23:30;;;;;;;80.70;37.90;;;8.60;99.90;;;;;;5051356;28;20412;-63
2022/03/17 05:25:57;;;;;;;89.40;38.65;;;8.60;99.90;;;;;;5059923;28;20103;-63
2022/03/17 05:28:22;;;;;;;89.85;39.45;;;8.70;99.90;;;;;;5058596;28;20591;-64
2022/03/17 05:30:48;;;;;;;89.93;38.78;;;8.60;99.90;;;;;;5065133;28;20072;-63
2022/03/17 05:33:14;;;;;;;99.60;39.33;;;8.70;99.90;;;;;;5065449;28;20040;-65
2022/03/17 05:35:41;;;;;;;95.82;40.55;;;8.70;99.90;;;;;;5054735;28;20116;-65
2022/03/17 05:38:07;;;;;;;99.88;40.17;;;8.70;99.90;;;;;;5037062;28;20064;-64
2022/03/17 05:40:33;;;;;;;75.75;31.23;;;8.80;99.90;;;;;;5036485;28;20071;-67
2022/03/17 05:43:02;;;;;;;56.75;25.20;;;8.80;99.90;;;;;;5063701;28;20063;-65
2022/03/17 05:45:29;;;;;;;45.25;19.80;;;8.70;99.90;;;;;;5035192;28;20037;-64
2022/03/17 05:48:00;;;;;;;38.28;17.35;;;8.60;99.90;;;;;;5055757;28;20032;-64
2022/03/17 05:50:29;;;;;;;32.78;16.13;;;8.60;99.90;;;;;;5049971;28;20045;-63
2022/03/17 05:52:55;;;;;;;28.77;13.40;;;8.50;99.90;;;;;;5060126;28;20435;-64
2022/03/17 05:55:23;;;;;;;23.17;11.10;;;8.40;99.90;;;;;;5038941;28;20120;-65
2022/03/17 05:57:51;;;;;;;19.52;11.38;;;8.30;99.90;;;;;;5060079;28;20446;-65
2022/03/17 06:00:19;;;;;;;18.05;10.60;;;8.20;99.90;;;;;;5050055;28;20051;-65
2022/03/17 06:02:45;;;;;;;14.73;8.93;;;8.10;99.90;;;;;;5052532;28;20036;-66
2022/03/17 06:05:14;;;;;;;14.20;9.10;;;8.00;99.90;;;;;;5051175;28;20614;-66
2022/03/17 06:07:41;;;;;;;18.08;9.73;;;8.00;99.90;;;;;;5033656;28;20048;-66
2022/03/17 06:10:09;;;;;;;15.98;9.52;;;8.00;99.90;;;;;;5041939;28;20120;-68
2022/03/17 06:12:35;;;;;;;20.98;10.70;;;7.80;99.90;;;;;;5052316;28;20093;-65
2022/03/17 06:15:01;;;;;;;20.85;10.85;;;7.80;99.90;;;;;;5050222;28;20076;-66
2022/03/17 06:17:49;;;;;;;16.90;10.05;;;7.70;99.90;;;;;;5060651;28;20044;-65
2022/03/17 06:20:18;;;;;;;22.95;11.00;;;7.70;99.90;;;;;;5037567;28;20507;-65
2022/03/17 06:22:46;;;;;;;24.60;11.18;;;7.60;99.90;;;;;;5054294;28;20167;-65
2022/03/17 06:25:15;;;;;;;20.75;10.68;;;7.60;99.90;;;;;;5036971;28;20029;-65
2022/03/17 06:27:43;;;;;;;21.35;11.82;;;7.50;99.90;;;;;;5050812;28;20033;-66
2022/03/17 06:30:11;;;;;;;20.10;11.00;;;7.50;99.90;;;;;;5068949;28;20046;-65
2022/03/17 06:32:39;;;;;;;25.30;11.25;;;7.50;99.90;;;;;;5057888;28;20094;-65
2022/03/17 06:35:10;;;;;;;21.98;11.35;;;7.50;99.90;;;;;;5034825;28;20138;-66
2022/03/17 06:37:36;;;;;;;;;;;7.40;99.90;;;;;;5062817;28;20037;-65
2022/03/17 06:40:03;;;;;;;19.33;10.05;;;7.50;99.90;;;;;;5056837;28;19924;-66
2022/03/17 06:42:28;;;;;;;19.35;10.57;;;7.50;99.90;;;;;;5049515;28;20036;-65
2022/03/17 06:44:54;;;;;;;23.35;11.48;;;7.50;99.90;;;;;;5059650;28;20041;-65
2022/03/17 06:47:19;;;;;;;22.23;12.45;;;7.40;99.90;;;;;;5036083;28;20041;-65
2022/03/17 06:49:45;;;;;;;21.38;10.95;;;7.40;99.90;;;;;;5051435;28;20041;-65
2022/03/17 06:52:11;;;;;;;20.60;10.80;;;7.40;99.90;;;;;;5044847;28;20135;-65
2022/03/17 06:54:37;;;;;;;24.75;10.43;;;7.40;99.90;;;;;;5039155;28;20072;-64
2022/03/17 06:57:02;;;;;;;21.63;10.65;;;7.40;99.90;;;;;;5039379;28;20080;-65
2022/03/17 06:59:28;;;;;;;16.95;8.65;;;7.30;99.90;;;;;;5055620;28;20040;-65
2022/03/17 07:01:53;;;;;;;17.83;9.50;;;7.30;99.90;;;;;;5053566;28;20052;-65
2022/03/17 07:04:19;;;;;;;15.15;9.00;;;7.30;99.90;;;;;;5035322;28;20051;-64
2022/03/17 07:06:45;;;;;;;20.13;8.80;;;7.30;99.90;;;;;;5029579;28;20163;-65
2022/03/17 07:09:10;;;;;;;20.10;9.25;;;7.30;99.90;;;;;;5057276;28;20147;-65
2022/03/17 07:11:37;;;;;;;24.08;9.07;;;7.20;99.90;;;;;;5047692;28;20033;-64
2022/03/17 07:14:02;;;;;;;16.75;8.52;;;7.20;99.90;;;;;;5047329;28;20847;-65
2022/03/17 07:16:28;;;;;;;20.30;8.43;;;7.20;99.90;;;;;;5047169;28;20188;-67
2022/03/17 07:18:53;;;;;;;15.50;7.38;;;7.20;99.90;;;;;;5054250;28;20033;-66
2022/03/17 07:21:19;;;;;;;16.25;7.07;;;7.20;99.90;;;;;;5053250;28;20145;-64
2022/03/17 07:23:44;;;;;;;17.48;7.00;;;7.20;99.90;;;;;;5046563;28;20590;-65
2022/03/17 07:26:10;;;;;;;11.43;5.60;;;7.20;99.90;;;;;;5050448;28;20033;-66
2022/03/17 07:28:35;;;;;;;12.45;4.95;;;7.20;99.90;;;;;;5048375;28;20227;-65
2022/03/17 07:31:01;;;;;;;14.68;4.78;;;7.20;99.90;;;;;;5062670;28;20219;-64
2022/03/17 07:33:26;;;;;;;14.50;4.53;;;7.20;99.90;;;;;;5043814;28;20040;-65
2022/03/17 07:35:53;;;;;;;15.50;3.88;;;7.20;99.90;;;;;;5060760;28;20546;-66
2022/03/17 07:38:18;;;;;;;8.93;3.45;;;7.20;99.90;;;;;;5035868;28;20032;-65
2022/03/17 07:40:46;;;;;;;10.38;3.50;;;7.20;99.90;;;;;;5046191;28;20037;-65
2022/03/17 07:43:12;;;;;;;9.73;3.20;;;7.20;99.90;;;;;;5050376;28;20414;-64
2022/03/17 07:45:37;;;;;;;9.75;3.65;;;7.20;99.90;;;;;;5047781;28;20079;-64
2022/03/17 07:48:05;;;;;;;13.73;3.83;;;7.20;99.90;;;;;;5060201;28;20044;-65
2022/03/17 07:50:32;;;;;;;8.68;3.20;;;7.20;99.90;;;;;;5055800;28;20052;-65
2022/03/17 07:52:58;;;;;;;9.38;2.90;;;7.20;99.90;;;;;;5045671;28;20045;-66
2022/03/17 07:55:24;;;;;;;10.63;3.17;;;7.30;99.90;;;;;;5058267;28;20067;-66
2022/03/17 07:57:49;;;;;;;12.18;2.47;;;7.30;99.90;;;;;;5031513;28;20073;-65
2022/03/17 08:00:15;;;;;;;12.55;2.95;;;7.30;99.90;;;;;;5064937;28;20040;-68
2022/03/17 08:02:41;;;;;;;7.18;2.35;;;7.30;99.90;;;;;;5050842;28;20356;-67
2022/03/17 08:05:08;;;;;;;11.43;2.38;;;7.20;99.90;;;;;;5038794;28;20032;-65
2022/03/17 08:07:34;;;;;;;7.03;2.58;;;7.20;99.90;;;;;;5058243;28;20075;-65
2022/03/17 08:09:59;;;;;;;9.32;2.20;;;7.20;99.90;;;;;;5050661;28;20076;-65
2022/03/17 08:12:30;;;;;;;4.97;1.73;;;7.20;99.90;;;;;;5054315;28;20037;-64
2022/03/17 08:14:56;;;;;;;3.83;1.42;;;7.10;99.90;;;;;;5058457;28;20048;-66
2022/03/17 08:17:21;;;;;;;10.32;1.75;;;7.10;99.90;;;;;;5043556;28;20468;-66
2022/03/17 08:19:47;;;;;;;10.23;1.88;;;7.10;99.90;;;;;;5052394;28;20060;-65
2022/03/17 08:22:12;;;;;;;6.50;1.27;;;7.10;99.90;;;;;;5055791;28;20053;-65
2022/03/17 08:24:38;;;;;;;14.13;1.88;;;7.10;99.90;;;;;;5061060;28;20037;-67
2022/03/17 08:27:05;;;;;;;9.73;1.55;;;7.20;99.90;;;;;;5052429;28;20119;-65
2022/03/17 08:29:31;;;;;;;8.80;1.42;;;7.20;99.90;;;;;;5055208;28;20083;-67
2022/03/17 08:31:57;;;;;;;6.15;1.45;;;7.30;99.90;;;;;;5045789;28;20033;-65
2022/03/17 08:34:22;;;;;;;11.02;1.58;;;7.30;99.90;;;;;;5043894;28;21253;-67
2022/03/17 08:36:50;;;;;;;19.23;1.88;;;7.30;99.90;;;;;;5032133;28;20091;-67
2022/03/17 08:39:15;;;;;;;15.63;1.77;;;7.20;99.90;;;;;;5056993;28;20481;-66
2022/03/17 08:41:41;;;;;;;9.10;1.83;;;7.20;99.90;;;;;;5051319;28;20130;-66
2022/03/17 08:44:07;;;;;;;10.98;1.60;;;7.20;99.90;;;;;;5052994;28;20159;-67
2022/03/17 08:49:19;;;;;;;9.32;1.60;;;7.30;99.90;;;;;;5058464;28;20089;-66
2022/03/17 08:51:51;;;;;;;10.13;2.40;;;7.30;99.90;;;;;;5062305;28;20056;-66
2022/03/17 08:54:17;;;;;;;14.05;1.58;;;7.40;99.90;;;;;;5050508;28;20045;-66
2022/03/17 08:56:43;;;;;;;9.20;1.65;;;7.40;99.90;;;;;;5057488;28;20048;-66
2022/03/17 08:59:10;;;;;;;11.75;1.58;;;7.40;99.90;;;;;;5062438;28;20037;-66
2022/03/17 09:01:37;;;;;;;8.95;1.67;;;7.50;99.90;;;;;;5054330;28;20036;-68
2022/03/17 09:04:03;;;;;;;13.02;2.38;;;7.50;99.90;;;;;;5047062;28;20511;-66
2022/03/17 09:06:29;;;;;;;10.07;1.85;;;7.50;99.90;;;;;;5051655;28;20071;-65
2022/03/17 09:08:54;;;;;;;10.40;2.08;;;7.50;99.90;;;;;;5048088;28;20472;-67
2022/03/17 09:11:20;;;;;;;11.00;2.03;;;7.50;99.90;;;;;;5060063;28;20044;-66
2022/03/17 09:13:48;;;;;;;9.23;1.40;;;7.50;99.90;;;;;;5058240;28;20044;-67
2022/03/17 09:16:13;;;;;;;11.07;1.65;;;7.50;99.90;;;;;;5054761;28;20086;-67
2022/03/17 09:18:42;;;;;;;11.82;2.22;;;7.40;99.90;;;;;;5053306;28;20036;-67
2022/03/17 09:21:08;;;;;;;11.45;1.52;;;7.40;99.90;;;;;;5049712;28;20453;-66
2022/03/17 09:23:34;;;;;;;11.13;2.05;;;7.40;99.90;;;;;;5049963;28;20100;-68
2022/03/17 09:25:59;;;;;;;12.95;2.25;;;7.40;99.90;;;;;;5047974;28;20241;-67
2022/03/17 09:28:27;;;;;;;11.98;2.30;;;7.40;99.90;;;;;;5050452;28;20044;-68
2022/03/17 09:30:56;;;;;;;9.48;1.92;;;7.40;99.90;;;;;;5039689;28;20029;-65
2022/03/17 09:33:25;;;;;;;10.18;2.05;;;7.50;99.90;;;;;;5049933;28;20044;-66
2022/03/17 09:35:57;;;;;;;14.77;1.95;;;7.70;99.90;;;;;;5049080;28;20033;-67
2022/03/17 09:38:23;;;;;;;8.63;1.77;;;7.80;99.90;;;;;;5062688;28;20393;-67
2022/03/17 09:40:49;;;;;;;14.27;2.20;;;7.90;99.90;;;;;;5034552;28;20029;-67
2022/03/17 09:43:28;;;;;;;11.68;2.03;;;8.00;99.90;;;;;;5052392;28;20055;-67
2022/03/17 09:45:55;;;;;;;13.32;2.22;;;8.00;99.90;;;;;;5050609;28;20048;-67
2022/03/17 09:48:23;;;;;;;7.85;1.77;;;8.00;99.90;;;;;;5049677;28;20051;-67
2022/03/17 09:50:56;;;;;;;9.98;2.17;;;7.90;99.90;;;;;;5051463;28;20166;-66
2022/03/17 09:53:23;;;;;;;12.10;2.10;;;7.90;99.90;;;;;;5054692;28;20037;-66
2022/03/17 09:55:50;;;;;;;11.48;1.63;;;7.90;99.90;;;;;;5033953;28;20067;-68
2022/03/17 09:58:16;;;;;;;7.25;1.52;;;7.90;99.90;;;;;;5054050;28;20056;-67
2022/03/17 10:00:48;;;;;;;13.50;2.47;;;8.00;99.90;;;;;;5044691;28;20037;-66
2022/03/17 10:03:16;;;;;;;14.52;2.35;;;8.00;99.90;;;;;;5033890;28;20040;-67
2022/03/17 10:05:46;;;;;;;12.25;2.28;;;8.10;99.90;;;;;;5061954;28;20060;-67
2022/03/17 10:08:13;;;;;;;9.85;2.13;;;8.00;99.90;;;;;;5037983;28;20453;-67
2022/03/17 10:10:41;;;;;;;11.10;1.77;;;8.00;99.90;;;;;;5030175;28;20059;-65
2022/03/17 10:13:10;;;;;;;10.52;1.73;;;8.00;99.90;;;;;;5047982;28;20049;-69
2022/03/17 10:15:36;;;;;;;12.93;2.20;;;8.10;99.90;;;;;;5031750;28;20040;-68
2022/03/17 10:18:24;;;;;;;11.68;1.98;;;8.20;99.90;;;;;;5049955;28;20041;-68
2022/03/17 10:21:13;;;;;;;10.95;1.73;;;8.30;99.90;;;;;;5053815;28;20433;-68
2022/03/17 10:24:02;;;;;;;8.23;1.60;;;8.50;99.90;;;;;;5063987;28;20046;-67
2022/03/17 10:26:43;;;;;;;7.20;1.70;;;8.60;99.90;;;;;;5065200;28;20036;-68
2022/03/17 10:29:12;;;;;;;8.70;1.85;;;8.80;99.90;;;;;;5047695;28;20063;-68
2022/03/17 10:32:01;;;;;;;10.68;2.05;;;9.00;99.90;;;;;;5049855;28;20499;-68
2022/03/17 10:34:32;;;;;;;8.95;1.50;;;9.10;99.90;;;;;;5046480;28;20612;-67
2022/03/17 10:37:11;;;;;;;12.43;1.98;;;9.20;99.90;;;;;;5045114;28;20097;-67
2022/03/17 10:39:58;;;;;;;8.15;1.63;;;9.40;99.90;;;;;;5050343;28;20037;-68
2022/03/17 10:42:28;;;;;;;7.93;1.73;;;9.80;98.20;;;;;;5042916;28;20071;-69
2022/03/17 10:44:56;;;;;;;9.75;1.58;;;10.20;99.90;;;;;;5047996;28;20136;-68
2022/03/17 10:47:33;;;;;;;11.27;1.52;;;10.30;99.80;;;;;;5028418;28;20041;-68
2022/03/17 10:49:59;;;;;;;7.18;1.50;;;10.40;93.30;;;;;;5030970;28;20044;-68
2022/03/17 10:52:24;;;;;;;8.40;1.38;;;10.50;97.60;;;;;;5045046;28;20067;-68
2022/03/17 10:54:56;;;;;;;10.32;1.88;;;10.50;97.90;;;;;;5045749;28;20037;-69
2022/03/17 10:57:24;;;;;;;12.70;1.55;;;10.70;94.50;;;;;;5028523;28;20067;-68
2022/03/17 10:59:53;;;;;;;12.25;2.15;;;10.90;97.60;;;;;;5049259;28;20329;-67
2022/03/17 11:02:24;;;;;;;9.18;1.70;;;11.00;93.60;;;;;;5046202;28;20044;-68
2022/03/17 11:04:50;;;;;;;9.57;1.45;;;11.10;95.00;;;;;;5046455;28;20041;-68
2022/03/17 11:07:17;;;;;;;8.38;1.90;;;11.10;94.40;;;;;;5032175;28;20048;-68
2022/03/17 11:09:44;;;;;;;5.20;1.50;;;11.00;93.80;;;;;;5067832;28;20036;-68
2022/03/17 11:12:12;;;;;;;7.20;1.48;;;11.00;94.00;;;;;;5066184;28;20146;-69
2022/03/17 11:15:04;;;;;;;7.40;1.58;;;10.80;93.60;;;;;;5068774;28;20048;-70
2022/03/17 11:17:36;;;;;;;8.90;1.88;;;10.70;90.80;;;;;;5066831;28;20499;-68
2022/03/17 11:20:07;;;;;;;6.85;1.35;;;10.60;93.00;;;;;;5069051;28;20055;-68
2022/03/17 11:22:34;;;;;;;7.43;1.17;;;10.60;92.50;;;;;;5047787;28;20033;-67
2022/03/17 11:25:25;;;;;;;6.78;1.98;;;10.50;93.00;;;;;;5056786;28;20082;-67
2022/03/17 11:27:56;;;;;;;8.48;1.85;;;10.60;85.40;;;;;;5055788;28;20417;-66
2022/03/17 11:30:27;;;;;;;6.90;1.77;;;10.80;85.10;;;;;;5063638;28;20378;-67
2022/03/17 11:32:56;;;;;;;11.43;1.90;;;10.60;89.00;;;;;;5037170;28;20388;-68
2022/03/17 11:35:32;;;;;;;10.02;2.05;;;10.50;90.10;;;;;;5054519;28;20064;-67
2022/03/17 11:38:15;;;;;;;8.65;1.40;;;10.50;88.10;;;;;;5054310;28;20036;-66
2022/03/17 11:41:10;;;;;;;8.23;1.48;;;10.70;84.50;;;;;;5044106;28;20024;-68
2022/03/17 11:43:39;;;;;;;6.85;1.65;;;11.00;83.00;;;;;;5060908;28;20041;-68
2022/03/17 11:46:12;;;;;;;5.43;1.45;;;11.10;85.60;;;;;;5047646;28;20043;-68
2022/03/17 11:48:38;;;;;;;6.80;1.50;;;11.20;82.70;;;;;;5049917;28;20064;-67
2022/03/17 11:51:05;;;;;;;6.88;1.67;;;11.20;85.40;;;;;;5053749;28;20068;-67
2022/03/17 11:54:03;;;;;;;9.25;1.80;;;11.30;85.20;;;;;;5058269;28;20041;-68
2022/03/17 11:56:45;;;;;;;6.45;1.65;;;11.40;83.90;;;;;;5057556;28;20045;-68
2022/03/17 11:59:16;;;;;;;9.63;2.15;;;11.40;82.80;;;;;;5047741;28;20064;-69
2022/03/17 12:01:48;;;;;;;9.95;1.42;;;11.60;85.20;;;;;;5052197;28;20052;-69
2022/03/17 12:04:30;;;;;;;5.90;1.98;;;11.60;80.10;;;;;;5048671;28;20041;-68
2022/03/17 12:07:20;;;;;;;8.10;1.77;;;11.80;82.60;;;;;;5057776;28;20055;-68
2022/03/17 12:09:47;;;;;;;5.88;1.63;;;11.90;78.80;;;;;;5058048;28;20060;-68
2022/03/17 12:12:25;;;;;;;11.35;2.03;;;12.00;80.30;;;;;;5049353;28;20047;-68
2022/03/17 12:14:59;;;;;;;11.80;1.83;;;12.10;76.20;;;;;;5051653;28;20127;-66
2022/03/17 12:17:26;;;;;;;6.07;1.42;;;12.20;75.70;;;;;;5064743;28;20037;-67
2022/03/17 12:20:07;;;;;;;10.85;2.10;;;12.40;78.00;;;;;;5066823;28;20060;-66
2022/03/17 12:22:37;;;;;;;7.88;1.83;;;12.70;73.20;;;;;;5048650;28;20114;-67
2022/03/17 12:25:16;;;;;;;7.28;1.48;;;12.70;71.80;;;;;;5051806;28;20082;-66
2022/03/17 12:27:43;;;;;;;8.10;1.63;;;12.40;68.40;;;;;;5049924;28;20530;-67
2022/03/17 12:30:15;;;;;;;8.77;1.88;;;12.60;75.40;;;;;;5063420;28;20055;-69
2022/03/17 12:32:49;;;;;;;8.32;1.80;;;12.80;75.20;;;;;;5059908;28;20044;-72
2022/03/17 12:35:15;;;;;;;9.40;1.52;;;13.00;74.90;;;;;;5059371;28;20068;-69
2022/03/17 12:37:42;;;;;;;9.95;1.90;;;13.00;75.60;;;;;;5047595;28;20154;-70
2022/03/17 12:40:13;;;;;;;7.85;2.13;;;13.00;73.70;;;;;;5055155;28;20070;-69
2022/03/17 12:42:44;;;;;;;5.65;1.77;;;12.90;74.30;;;;;;5057422;28;21497;-68
2022/03/17 12:45:19;;;;;;;9.75;2.03;;;12.90;72.40;;;;;;5050239;28;20461;-68
2022/03/17 12:47:56;;;;;;;8.02;1.95;;;12.90;72.50;;;;;;5039189;28;20101;-68
2022/03/17 12:50:23;;;;;;;11.23;1.80;;;12.90;70.90;;;;;;5051742;28;20075;-68
2022/03/17 12:52:50;;;;;;;10.48;1.92;;;13.00;73.70;;;;;;5050773;28;20335;-69
2022/03/17 12:55:19;;;;;;;9.60;1.50;;;13.10;72.70;;;;;;5051809;28;20037;-69